createdAt,value
2019-02-12T00:02:15.999Z,3.86
2019-02-12T00:07:18.805Z,3.86
2019-02-12T00:12:20.952Z,3.86
2019-02-12T00:17:23.193Z,3.87
2019-02-12T00:22:25.395Z,3.84
2019-02-12T00:27:27.626Z,3.88
2019-02-12T00:32:30.351Z,3.88
2019-02-12T00:37:32.529Z,3.87
2019-02-12T00:42:35.230Z,3.87
2019-02-12T00:47:37.735Z,3.81
2019-02-12T00:52:40.192Z,3.80
2019-02-12T00:57:42.925Z,3.81
2019-02-12T01:02:46.013Z,3.76
2019-02-12T01:07:50.009Z,3.72
2019-02-12T01:12:52.851Z,3.65
2019-02-12T01:17:55.534Z,3.64
2019-02-12T01:22:58.857Z,3.63
2019-02-12T01:28:01.548Z,3.64
2019-02-12T01:33:05.884Z,3.62
2019-02-12T01:38:08.048Z,3.60
2019-02-12T01:43:10.204Z,3.59
2019-02-12T01:48:12.415Z,3.60
2019-02-12T01:53:15.753Z,3.62
2019-02-12T01:58:18.356Z,3.66
2019-02-12T02:03:20.572Z,3.67
2019-02-12T02:08:23.124Z,3.71
2019-02-12T02:13:25.457Z,3.74
2019-02-12T02:18:27.708Z,3.70
2019-02-12T02:23:29.873Z,3.70
2019-02-12T02:28:32.668Z,3.73
2019-02-12T02:33:35.379Z,3.73
2019-02-12T02:38:37.863Z,3.76
2019-02-12T02:43:41.382Z,3.78
2019-02-12T02:48:44.752Z,3.80
2019-02-12T02:53:47.766Z,3.78
2019-02-12T02:58:50.547Z,3.81
2019-02-12T03:03:53.401Z,3.79
2019-02-12T03:08:56.200Z,3.77
2019-02-12T03:13:58.379Z,3.79
2019-02-12T03:19:00.536Z,3.76
2019-02-12T03:24:02.688Z,3.68
2019-02-12T03:29:04.832Z,3.61
2019-02-12T03:34:07.020Z,3.53
2019-02-12T03:39:09.744Z,3.46
2019-02-12T03:44:12.612Z,3.41
2019-02-12T03:49:14.769Z,3.38
2019-02-12T03:54:17.797Z,3.34
2019-02-12T03:59:20.217Z,3.31
2019-02-12T04:04:22.976Z,3.30
2019-02-12T04:09:25.527Z,3.27
2019-02-12T04:14:28.242Z,3.26
2019-02-12T04:19:31.283Z,3.25
2019-02-12T04:24:33.492Z,3.26
2019-02-12T04:29:36.187Z,3.27
2019-02-12T04:34:39.315Z,3.26
2019-02-12T04:39:42.337Z,3.26
2019-02-12T04:44:44.611Z,3.26
2019-02-12T04:49:46.811Z,3.28
2019-02-12T04:54:49.025Z,3.29
2019-02-12T04:59:51.978Z,3.28
2019-02-12T05:04:54.189Z,3.28
2019-02-12T05:09:56.801Z,3.27
2019-02-12T05:14:59.062Z,3.27
2019-02-12T05:20:01.243Z,3.26
2019-02-12T05:25:04.788Z,3.27
2019-02-12T05:30:08.750Z,3.25
2019-02-12T05:35:11.496Z,3.23
2019-02-12T05:40:14.537Z,3.25
2019-02-12T05:45:16.742Z,3.23
2019-02-12T05:50:18.892Z,3.23
2019-02-12T05:55:21.068Z,3.25
2019-02-12T06:00:26.567Z,3.26
2019-02-12T06:05:29.021Z,3.28
2019-02-12T06:10:31.299Z,3.30
2019-02-12T06:15:34.106Z,3.32
2019-02-12T06:20:36.831Z,3.35
2019-02-12T06:25:39.396Z,3.37
2019-02-12T06:30:43.948Z,3.37
2019-02-12T06:35:46.078Z,3.37
2019-02-12T06:40:48.381Z,3.37
2019-02-12T06:45:51.050Z,3.41
2019-02-12T06:50:54.218Z,3.45
2019-02-12T06:55:56.760Z,3.48
2019-02-12T07:01:00.996Z,3.51
2019-02-12T07:07:10.094Z,3.53
2019-02-12T07:12:57.590Z,3.56
2019-02-12T07:18:51.917Z,3.60
2019-02-12T07:25:07.552Z,3.63
2019-02-12T07:31:11.499Z,3.64
2019-02-12T07:37:06.870Z,3.69
2019-02-12T07:42:28.986Z,3.70
2019-02-12T07:47:48.344Z,3.74
2019-02-12T07:53:31.792Z,3.73
2019-02-12T07:59:19.775Z,3.75
2019-02-12T08:05:23.752Z,3.78
2019-02-12T08:11:00.172Z,3.79
2019-02-12T08:17:06.935Z,3.80
2019-02-12T08:23:01.076Z,3.80
2019-02-12T08:28:31.732Z,3.80
2019-02-12T08:34:17.355Z,3.83
2019-02-12T08:40:25.951Z,3.86
2019-02-12T08:46:23.007Z,3.94
2019-02-12T08:52:14.944Z,4.09
2019-02-12T08:57:37.691Z,4.34
2019-02-12T09:03:21.035Z,4.56
2019-02-12T09:08:46.229Z,4.78
2019-02-12T09:14:17.484Z,5.37
2019-02-12T09:19:56.812Z,6.35
2019-02-12T09:25:22.920Z,6.75
2019-02-12T09:31:22.129Z,7.69
2019-02-12T09:37:28.918Z,8.66
2019-02-12T09:43:13.437Z,8.37
2019-02-12T09:49:14.241Z,8.36
2019-02-12T09:55:03.101Z,8.83
2019-02-12T10:00:47.122Z,8.66
2019-02-12T10:06:33.028Z,8.21
2019-02-12T10:11:55.895Z,8.29
2019-02-12T10:17:22.215Z,8.30
2019-02-12T10:23:22.567Z,8.67
2019-02-12T10:29:24.610Z,10.25
2019-02-12T10:34:27.347Z,10.93
2019-02-12T10:39:30.826Z,11.03
2019-02-12T10:44:33.610Z,12.00
2019-02-12T10:49:35.911Z,12.78
2019-02-12T10:54:38.090Z,12.79
2019-02-12T10:59:40.308Z,12.79
2019-02-12T11:04:43.437Z,13.15
2019-02-12T11:09:46.170Z,13.19
2019-02-12T11:14:48.378Z,12.21
2019-02-12T11:19:50.567Z,11.58
2019-02-12T11:24:52.776Z,11.88
2019-02-12T11:29:55.325Z,11.70
2019-02-12T11:34:57.625Z,11.91
2019-02-12T11:39:59.833Z,11.88
2019-02-12T11:45:02.911Z,11.08
2019-02-12T11:50:06.947Z,11.30
2019-02-12T11:55:10.455Z,11.92
2019-02-12T12:00:15.465Z,12.37
2019-02-12T12:05:17.677Z,12.70
2019-02-12T12:10:19.901Z,12.85
2019-02-12T12:15:22.103Z,13.07
2019-02-12T12:20:24.713Z,13.27
2019-02-12T12:25:27.511Z,13.60
2019-02-12T12:30:29.903Z,13.52
2019-02-12T12:35:32.506Z,12.92
2019-02-12T12:40:35.306Z,12.20
2019-02-12T12:45:37.527Z,11.44
2019-02-12T12:50:40.412Z,11.59
2019-02-12T12:55:43.569Z,11.91
2019-02-12T13:00:45.826Z,12.01
2019-02-12T13:05:48.650Z,11.54
2019-02-12T13:10:51.304Z,10.87
2019-02-12T13:15:53.744Z,11.34
2019-02-12T13:20:55.943Z,11.85
2019-02-12T13:25:58.262Z,12.20
2019-02-12T13:31:00.720Z,12.39
2019-02-12T13:36:04.572Z,12.42
2019-02-12T13:41:07.884Z,12.14
2019-02-12T13:46:10.087Z,11.74
2019-02-12T13:51:12.859Z,11.92
2019-02-12T13:56:15.655Z,12.11
2019-02-12T14:01:18.145Z,12.19
2019-02-12T14:06:20.933Z,12.13
2019-02-12T14:11:24.044Z,12.18
2019-02-12T14:16:26.470Z,12.08
2019-02-12T14:21:29.319Z,12.12
2019-02-12T14:26:31.888Z,12.17
2019-02-12T14:31:34.152Z,11.99
2019-02-12T14:36:36.345Z,11.84
2019-02-12T14:41:39.304Z,11.73
2019-02-12T14:46:41.499Z,11.54
2019-02-12T14:51:44.732Z,11.35
2019-02-12T14:56:47.163Z,11.07
2019-02-12T15:01:49.857Z,10.90
2019-02-12T15:06:52.758Z,10.77
2019-02-12T15:11:55.148Z,10.74
2019-02-12T15:16:57.359Z,10.64
2019-02-12T15:21:59.659Z,10.54
2019-02-12T15:27:02.011Z,10.42
2019-02-12T15:32:05.217Z,10.27
2019-02-12T15:37:09.358Z,10.11
2019-02-12T15:42:12.146Z,10.00
2019-02-12T15:47:14.597Z,9.83
2019-02-12T15:52:17.079Z,9.62
2019-02-12T15:57:19.658Z,9.42
2019-02-12T16:02:21.822Z,9.20
2019-02-12T16:07:24.498Z,9.05
2019-02-12T16:12:28.513Z,8.97
2019-02-12T16:17:31.241Z,8.86
2019-02-12T16:22:33.733Z,8.72
2019-02-12T16:27:36.360Z,8.61
2019-02-12T16:32:38.591Z,8.45
2019-02-12T16:37:41.492Z,8.30
2019-02-12T16:42:44.823Z,8.15
2019-02-12T16:47:47.227Z,8.02
2019-02-12T16:52:51.639Z,7.95
2019-02-12T16:57:54.211Z,7.88
2019-02-12T17:02:57.363Z,7.80
2019-02-12T17:07:59.589Z,7.74
2019-02-12T17:13:02.361Z,7.67
2019-02-12T17:18:05.844Z,7.62
2019-02-12T17:23:08.134Z,7.57
2019-02-12T17:28:11.276Z,7.43
2019-02-12T17:33:13.422Z,7.33
2019-02-12T17:38:15.882Z,7.21
2019-02-12T17:43:18.917Z,7.07
2019-02-12T17:48:21.117Z,7.01
2019-02-12T17:53:23.310Z,6.96
2019-02-12T17:58:25.799Z,6.90
2019-02-12T18:03:28.195Z,6.81
2019-02-12T18:08:30.404Z,6.74
2019-02-12T18:13:33.353Z,6.66
2019-02-12T18:18:35.872Z,6.61
2019-02-12T18:23:39.881Z,6.49
2019-02-12T18:28:42.585Z,6.37
2019-02-12T18:33:45.382Z,6.26
2019-02-12T18:38:48.697Z,6.20
2019-02-12T18:43:51.985Z,6.17
2019-02-12T18:48:54.903Z,6.14
2019-02-12T18:53:57.100Z,6.08
2019-02-12T18:58:59.705Z,6.02
2019-02-12T19:04:04.998Z,5.95
2019-02-12T19:09:14.880Z,5.88
2019-02-12T19:14:18.483Z,5.87
2019-02-12T19:19:21.024Z,5.82
2019-02-12T19:24:24.112Z,5.77
2019-02-12T19:29:26.322Z,5.79
2019-02-12T19:34:29.703Z,5.79
2019-02-12T19:39:32.299Z,5.83
2019-02-12T19:44:34.654Z,5.66
2019-02-12T19:49:37.733Z,5.40
2019-02-12T19:54:40.587Z,5.19
2019-02-12T19:59:42.780Z,5.05
2019-02-12T20:04:45.822Z,5.02
2019-02-12T20:09:48.031Z,5.08
2019-02-12T20:14:50.282Z,5.13
2019-02-12T20:19:52.516Z,5.01
2019-02-12T20:24:55.898Z,4.86
2019-02-12T20:29:58.646Z,4.75
2019-02-12T20:35:01.886Z,4.74
2019-02-12T20:40:08.061Z,4.76
2019-02-12T20:45:12.440Z,4.71
2019-02-12T20:50:14.773Z,4.77
2019-02-12T20:55:17.031Z,4.75
2019-02-12T21:00:19.548Z,4.73
2019-02-12T21:05:22.322Z,4.71
2019-02-12T21:10:24.524Z,4.69
2019-02-12T21:15:27.127Z,4.67
2019-02-12T21:20:29.615Z,4.68
2019-02-12T21:25:31.767Z,4.71
2019-02-12T21:30:34.218Z,4.70
2019-02-12T21:35:37.500Z,4.68
2019-02-12T21:40:39.853Z,4.66
2019-02-12T21:45:42.057Z,4.71
2019-02-12T21:50:44.446Z,4.71
2019-02-12T21:55:46.627Z,4.81
2019-02-12T22:00:48.885Z,4.87
2019-02-12T22:05:51.404Z,4.95
2019-02-12T22:10:54.139Z,4.90
2019-02-12T22:15:56.607Z,4.84
2019-02-12T22:20:59.711Z,4.80
2019-02-12T22:26:02.550Z,4.79
2019-02-12T22:31:04.787Z,4.78
2019-02-12T22:36:06.964Z,4.77
2019-02-12T22:41:09.183Z,4.82
2019-02-12T22:46:11.973Z,4.85
2019-02-12T22:51:14.239Z,4.83
2019-02-12T22:56:16.743Z,4.84
2019-02-12T23:01:26.419Z,4.81
2019-02-12T23:06:28.806Z,4.79
2019-02-12T23:11:32.014Z,4.83
2019-02-12T23:16:34.904Z,4.83
2019-02-12T23:21:37.447Z,4.87
2019-02-12T23:26:40.604Z,4.87
2019-02-12T23:31:43.454Z,4.92
2019-02-12T23:36:45.683Z,4.92
2019-02-12T23:41:47.850Z,4.91
2019-02-12T23:46:50.670Z,4.95
2019-02-12T23:51:52.837Z,4.97
2019-02-12T23:56:57.406Z,4.91
